logo
Search for airport 
image banner adimage banner adimage banner ad
image banner ad

VOBL - Kempegowda International Airport, Bengaluru

Located in Bengaluru, India

ICAO - VOBL, IATA - BLR

Data provided by Airmate  

General information

Coordinates: N13°11'56" E77°42'20"
Elevation is 3001 feet MSL.
 
View others Airports in Karnataka

Operational data

Special qualification required
Current time UTC:
Current local time:
Weather
METAR: VOBL 191400Z 21004KT 6000 SCT012 FEW025CB 31/16 Q1011 NOSIG
TAF: TAF VOBL 191400Z 1915/1924 11010KT 6000 SCT015
View NOTAMs / SUP AIP / TFR affecting this airport [VIEW]
Communications frequencies: [VIEW]

Runways:

RWY identifierQFULength (ft)Width (ft)SurfaceLDA (ft)
09R91°13123148UNK
27L271°13123148UNK
09L91°13123148UNK
27R271°13123148UNK

Airport contact information

Address: Bengaluru India

Satellite view of VOBL